createdAt,value
2023-07-18T05:59:03.013Z,98720.53
2023-07-18T06:01:31.207Z,98719.38
2023-07-18T06:03:59.060Z,98727.44
2023-07-18T06:06:26.681Z,98731.69
2023-07-18T06:08:54.017Z,98725.09
2023-07-18T06:11:21.352Z,98740.94
2023-07-18T06:13:50.080Z,98715.97
2023-07-18T06:16:17.890Z,98720.66
2023-07-18T08:17:26.837Z,98707.72
2023-07-18T08:19:54.368Z,98706.50
2023-07-18T08:22:22.405Z,98707.19
2023-07-18T08:24:49.776Z,98705.19
2023-07-18T08:27:17.100Z,98694.78
2023-07-18T08:29:45.263Z,98689.78
2023-07-18T08:32:12.722Z,98688.91
2023-07-18T08:34:40.484Z,98690.66
2023-07-18T08:37:12.985Z,98683.50
2023-07-18T08:39:40.426Z,98670.88
2023-07-18T08:42:08.268Z,98651.88
2023-07-18T08:44:39.319Z,98682.34
2023-07-18T08:47:08.174Z,98680.59
2023-07-18T08:49:37.334Z,98643.78
2023-07-18T08:52:06.803Z,98668.13
2023-07-18T08:54:35.959Z,98658.56
2023-07-18T08:57:05.167Z,98650.16
2023-07-18T08:59:32.868Z,98653.09
2023-07-18T09:02:00.182Z,98642.88
2023-07-18T09:04:27.653Z,98653.78
2023-07-18T09:07:02.233Z,98644.78
2023-07-18T09:09:29.807Z,98647.91
2023-07-18T09:12:04.796Z,98653.16
2023-07-18T09:14:35.236Z,98649.22
2023-07-18T11:08:52.034Z,98700.97
2023-07-18T11:11:20.030Z,98700.44
2023-07-18T11:13:47.405Z,98707.22
2023-07-18T11:16:19.123Z,98717.75
2023-07-18T11:18:47.822Z,98720.97
2023-07-18T11:21:18.434Z,98726.41
2023-07-18T11:23:46.677Z,98722.03
2023-07-18T11:26:19.557Z,98709.56
2023-07-18T11:28:51.223Z,98710.84
2023-07-18T11:31:40.185Z,98715.44
2023-07-18T11:34:10.708Z,98711.09
2023-07-18T11:36:38.619Z,98699.47
2023-07-18T11:39:23.596Z,98699.47
2023-07-18T11:41:53.668Z,98689.28
2023-07-18T11:44:26.313Z,98704.78
2023-07-18T11:46:54.685Z,98702.66
2023-07-18T11:49:35.451Z,98699.72
2023-07-18T11:52:06.886Z,98700.84
2023-07-18T11:54:37.465Z,98663.44
2023-07-18T11:57:07.692Z,98681.94
2023-07-18T11:59:35.336Z,98684.88
2023-07-18T12:02:03.287Z,98674.47
2023-07-18T12:04:30.646Z,98678.97
2023-07-18T12:06:59.082Z,98678.41
2023-07-18T12:09:27.274Z,98682.69
2023-07-18T12:11:55.735Z,98650.34
2023-07-18T12:14:23.407Z,98682.75
2023-07-18T12:16:50.802Z,98684.72
2023-07-18T12:19:20.958Z,98689.38
2023-07-18T12:21:50.196Z,98693.44
2023-07-18T12:24:19.695Z,98687.38
2023-07-18T12:26:47.125Z,98702.00
2023-07-18T12:29:16.478Z,98687.56
2023-07-18T12:31:50.704Z,98710.97
2023-07-18T12:34:18.204Z,98713.16
2023-07-18T12:36:46.385Z,98718.97
2023-07-18T12:39:17.034Z,98728.69
2023-07-18T12:41:44.615Z,98720.56
2023-07-18T12:44:26.456Z,98720.28
2023-07-18T12:46:57.073Z,98733.41
2023-07-18T12:51:54.818Z,98738.53
2023-07-18T12:54:22.516Z,98746.69
2023-07-18T12:56:49.980Z,98730.41
2023-07-18T12:59:17.216Z,98750.22
2023-07-18T13:01:45.361Z,98755.97
2023-07-18T13:04:12.837Z,98760.09
2023-07-18T13:06:40.154Z,98767.66
2023-07-18T13:09:07.437Z,98772.88
2023-07-18T13:11:35.455Z,98770.16
2023-07-18T13:14:03.092Z,98794.06
2023-07-18T13:16:30.493Z,98790.00
2023-07-18T13:18:58.014Z,98789.47
2023-07-18T13:21:25.805Z,98793.78
2023-07-18T13:23:53.333Z,98761.41
2023-07-18T13:26:22.866Z,98800.31
2023-07-18T13:28:50.244Z,98790.00
2023-07-18T13:31:17.689Z,98777.19
2023-07-18T13:33:45.006Z,98796.22
2023-07-18T13:36:12.917Z,98805.16
2023-07-18T13:38:40.601Z,98802.72
2023-07-18T13:41:12.531Z,98795.38
2023-07-18T13:43:40.484Z,98805.44
2023-07-18T13:46:08.861Z,98797.56
2023-07-18T13:48:36.466Z,98795.13
2023-07-18T13:51:04.724Z,98796.75
2023-07-18T13:53:33.234Z,98797.84
2023-07-18T13:56:00.427Z,98810.59
2023-07-18T13:58:27.928Z,98797.31
2023-07-18T14:00:55.535Z,98801.94
2023-07-18T14:03:34.128Z,98798.41
2023-07-18T14:06:03.279Z,98809.81
2023-07-18T14:08:31.510Z,98799.78
2023-07-18T14:10:59.277Z,98809.78
2023-07-18T14:13:27.147Z,98809.00
2023-07-18T14:15:55.979Z,98812.25
2023-07-18T14:18:23.749Z,98816.34
2023-07-18T14:20:51.209Z,98811.72
2023-07-18T14:23:18.639Z,98810.38
2023-07-18T14:25:49.265Z,98819.03
2023-07-18T14:28:17.747Z,98810.53
2023-07-18T14:30:45.419Z,98774.34
2023-07-18T14:33:15.802Z,98800.88
2023-07-18T14:35:44.084Z,98774.19
2023-07-18T14:38:12.037Z,98810.03
2023-07-18T14:40:40.369Z,98808.41
2023-07-18T14:43:10.791Z,98802.16
2023-07-18T14:45:38.741Z,98804.06
2023-07-18T14:48:08.080Z,98797.56
2023-07-18T14:50:35.874Z,98780.72
2023-07-18T14:53:03.391Z,98806.84
2023-07-18T14:55:34.508Z,98804.19
2023-07-18T14:58:06.153Z,98805.03
2023-07-18T15:00:37.726Z,98804.28
2023-07-18T15:03:05.151Z,98794.03
2023-07-18T15:05:33.965Z,98800.00
2023-07-18T15:08:01.398Z,98799.22
2023-07-18T15:10:28.800Z,98788.91
2023-07-18T15:12:56.188Z,98792.69
2023-07-18T15:15:23.583Z,98797.03
2023-07-18T15:17:50.914Z,98809.22
2023-07-18T15:20:18.475Z,98813.28
2023-07-18T15:22:47.894Z,98804.53
2023-07-18T15:25:15.305Z,98817.56
2023-07-18T15:27:42.648Z,98806.72
2023-07-18T15:30:11.267Z,98815.69
2023-07-18T15:32:40.475Z,98808.66
2023-07-18T15:35:08.639Z,98819.28
2023-07-18T15:37:36.566Z,98822.00
2023-07-18T15:40:04.938Z,98815.38
2023-07-18T15:42:33.741Z,98823.22
2023-07-18T15:45:01.414Z,98825.06
2023-07-18T15:47:28.690Z,98827.78
2023-07-18T15:49:56.190Z,98828.59
2023-07-18T15:52:27.809Z,98829.13
2023-07-18T15:54:57.534Z,98829.94
2023-07-18T15:57:25.026Z,98835.69
2023-07-18T15:59:54.095Z,98826.72
2023-07-18T16:02:23.551Z,98825.91
2023-07-18T16:04:50.947Z,98829.94
2023-07-18T16:07:18.505Z,98837.28
2023-07-18T16:09:53.620Z,98836.47
2023-07-18T16:12:21.057Z,98850.03
2023-07-18T16:14:48.746Z,98847.84
2023-07-18T16:17:19.073Z,98848.38
2023-07-18T16:19:49.437Z,98858.97
2023-07-18T16:22:18.017Z,98856.78
2023-07-18T16:24:47.612Z,98855.16
2023-07-18T16:27:16.616Z,98854.59
2023-07-18T16:29:44.020Z,98859.44
2023-07-18T16:32:11.464Z,98857.06
2023-07-18T16:34:39.141Z,98848.31
2023-07-18T16:37:08.441Z,98863.78
2023-07-18T16:39:35.726Z,98853.47
2023-07-18T16:42:13.474Z,98854.00
2023-07-18T16:44:41.271Z,98848.81
2023-07-18T16:47:12.359Z,98845.28
2023-07-18T16:49:40.285Z,98843.38
2023-07-18T16:52:11.518Z,98840.66
2023-07-18T16:54:38.913Z,98844.19
2023-07-18T16:57:06.400Z,98839.59
2023-07-18T16:59:33.868Z,98834.97
2023-07-18T17:02:02.364Z,98838.50
2023-07-18T17:04:32.032Z,98837.41
2023-07-18T17:06:59.496Z,98830.63
2023-07-18T17:09:26.906Z,98837.69
2023-07-18T17:11:54.122Z,98839.59
2023-07-18T17:14:21.669Z,98840.41
2023-07-18T17:16:48.986Z,98833.09
2023-07-18T17:19:17.102Z,98833.09
2023-07-18T17:21:44.477Z,98828.47
2023-07-18T17:24:12.124Z,98830.09
2023-07-18T17:26:39.726Z,98827.41
2023-07-18T17:29:07.027Z,98836.59
2023-07-18T17:31:34.305Z,98824.69
2023-07-18T17:34:02.523Z,98831.72
2023-07-18T17:36:30.061Z,98833.41
2023-07-18T17:38:57.481Z,98826.91
2023-07-18T17:41:25.049Z,98835.03
2023-07-18T17:43:52.389Z,98828.81
2023-07-18T17:46:25.494Z,98827.63
2023-07-18T17:48:52.885Z,98831.81
2023-07-18T17:51:20.505Z,98825.56
2023-07-18T17:53:48.261Z,98835.75
2023-07-18T17:56:15.841Z,98831.84
2023-07-18T17:58:43.956Z,98833.19
2023-07-18T18:01:11.164Z,98832.56
2023-07-18T18:03:42.554Z,98839.69
2023-07-18T18:06:10.485Z,98839.94
2023-07-18T18:08:40.339Z,98837.47
2023-07-18T18:11:08.639Z,98836.56
2023-07-18T18:13:41.469Z,98841.38
2023-07-18T18:16:09.707Z,98845.13
2023-07-18T18:18:37.220Z,98846.97
2023-07-18T18:21:05.122Z,98807.81
2023-07-18T18:26:03.978Z,98842.78
2023-07-18T18:28:31.449Z,98860.38
2023-07-18T18:30:58.903Z,98856.00
2023-07-18T18:33:28.821Z,98857.84
2023-07-18T18:35:57.428Z,98858.84
2023-07-18T18:38:24.789Z,98864.44
2023-07-18T18:40:53.273Z,98859.50
2023-07-18T18:43:21.814Z,98870.28
2023-07-18T18:45:49.214Z,98864.28
2023-07-18T18:48:17.244Z,98863.66
2023-07-18T18:50:46.612Z,98866.34
2023-07-18T18:53:14.064Z,98854.06
2023-07-18T18:55:41.651Z,98869.19
2023-07-18T18:58:10.689Z,98858.91
2023-07-18T19:00:38.968Z,98853.75
2023-07-18T19:03:06.402Z,98854.75
2023-07-18T19:05:34.468Z,98853.09
2023-07-18T19:08:01.704Z,98848.41
2023-07-18T19:10:29.476Z,98843.22
2023-07-18T19:12:56.898Z,98848.56
2023-07-18T19:15:24.370Z,98846.94
2023-07-18T19:17:52.471Z,98850.16
2023-07-18T19:20:20.769Z,98852.00
